38.6°F
Current conditions from King Hill
Updated every 5 minutes
 
  Saturday April 19, 2014

Station Historical Data
Daily Summary for June 7, 2012 Units:  Metric    English   Both
« Previous Day
Next Day »
Daily Weekly Monthly Yearly Custom
  High: Low: Average:
Temperature: 22.8 °C 10 °C 15.7 °C
Dew Point: 14 °C 7.2 °C 10.4 °C
Humidity: 96% 37% 74%
Wind Speed: 9.7km/h 0km/h 3.4km/h
Wind Gust: 17.7km/h - -
Wind- - WSW
Pressure: 1014.1 hPa 1010.4 hPa -
Precipitation: 0 mm    
Historical Graphs
 
 
Tabular Data for June 7, 2012
Time Temperature Dew Point Pressure Wind Wind Speed Wind Gust Humidity Daily Rainfall
00:04 10.4 °C 9.4 °C 1013.1 hPa Calm     94% 0 mm
00:14 10.2 °C 9.3 °C 1013.4 hPa Calm     94% 0 mm
00:19 10.1 °C 9.2 °C 1013.4 hPa Calm     94% 0 mm
00:24 10 °C 9.1 °C 1013.4 hPa Calm     94% 0 mm
00:29 10 °C 9.1 °C 1013.1 hPa Calm     94% 0 mm
00:34 10 °C 9.2 °C 1013.1 hPa Calm     95% 0 mm
00:40 10.2 °C 9.4 °C 1013.1 hPa Calm     95% 0 mm
00:49 10.2 °C 9.4 °C 1013.1 hPa Calm     95% 0 mm
00:54 10.1 °C 9.3 °C 1013.1 hPa Calm     95% 0 mm
00:59 10.1 °C 9.3 °C 1013.1 hPa Calm     95% 0 mm
01:04 10.1 °C 9.3 °C 1013.1 hPa Calm     95% 0 mm
01:09 10.1 °C 9.3 °C 1013.1 hPa Calm     95% 0 mm
01:14 10.1 °C 9.3 °C 1013.1 hPa Calm     95% 0 mm
01:19 10.1 °C 9.3 °C 1013.1 hPa Calm     95% 0 mm
01:24 10.2 °C 9.4 °C 1013.1 hPa Calm     95% 0 mm
01:29 10.2 °C 9.4 °C 1013.1 hPa Calm     95% 0 mm
01:34 10.2 °C 9.4 °C 1013.1 hPa Calm     95% 0 mm
01:39 10.2 °C 9.4 °C 1013.1 hPa Calm     95% 0 mm
01:44 10.3 °C 9.5 °C 1013.1 hPa Calm     95% 0 mm
01:49 10.3 °C 9.5 °C 1013.1 hPa Calm     95% 0 mm
01:54 10.3 °C 9.5 °C 1013.1 hPa Calm     95% 0 mm
02:04 10.4 °C 9.6 °C 1013.1 hPa Calm     95% 0 mm
02:09 10.4 °C 9.6 °C 1013.1 hPa Calm     95% 0 mm
02:14 10.4 °C 9.7 °C 1013.1 hPa Calm     95% 0 mm
02:19 10.5 °C 9.9 °C 1012.8 hPa Calm     96% 0 mm
02:29 10.4 °C 9.6 °C 1012.8 hPa Calm     95% 0 mm
02:39 10.3 °C 9.6 °C 1012.8 hPa Calm     95% 0 mm
02:44 10.3 °C 9.6 °C 1012.8 hPa Calm     95% 0 mm
02:49 10.3 °C 9.6 °C 1012.8 hPa Calm     95% 0 mm
02:54 10.3 °C 9.6 °C 1012.8 hPa Calm     95% 0 mm
02:59 10.4 °C 9.6 °C 1012.8 hPa Calm     95% 0 mm
03:05 10.4 °C 9.7 °C 1012.8 hPa Calm     95% 0 mm
03:14 10.6 °C 9.9 °C 1012.8 hPa Calm     96% 0 mm
03:19 10.6 °C 9.9 °C 1012.8 hPa Calm     96% 0 mm
03:24 10.5 °C 9.9 °C 1012.8 hPa Calm     96% 0 mm
03:29 10.5 °C 9.9 °C 1012.8 hPa Calm     96% 0 mm
03:39 10.5 °C 9.9 °C 1012.8 hPa Calm     96% 0 mm
03:44 10.5 °C 9.9 °C 1012.8 hPa Calm     96% 0 mm
03:49 10.5 °C 9.9 °C 1012.8 hPa Calm     96% 0 mm
03:54 10.4 °C 9.8 °C 1012.8 hPa Calm     96% 0 mm
03:59 10.4 °C 9.8 °C 1012.8 hPa Calm     96% 0 mm
04:04 10.5 °C 9.9 °C 1012.8 hPa Calm     96% 0 mm
04:09 10.5 °C 9.9 °C 1012.8 hPa Calm     96% 0 mm
04:14 10.4 °C 9.8 °C 1012.8 hPa Calm     96% 0 mm
04:19 10.4 °C 9.8 °C 1012.8 hPa Calm     96% 0 mm
04:24 10.4 °C 9.8 °C 1012.8 hPa Calm     96% 0 mm
04:29 10.4 °C 9.8 °C 1013.1 hPa Calm     96% 0 mm
04:34 10.4 °C 9.8 °C 1013.1 hPa Calm     96% 0 mm
04:39 10.4 °C 9.8 °C 1013.1 hPa Calm     96% 0 mm
04:44 10.4 °C 9.8 °C 1013.1 hPa Calm     96% 0 mm
04:49 10.3 °C 9.7 °C 1013.1 hPa Calm     96% 0 mm
04:54 10.3 °C 9.7 °C 1013.1 hPa Calm     96% 0 mm
04:59 10.3 °C 9.7 °C 1013.1 hPa Calm     96% 0 mm
05:04 10.3 °C 9.7 °C 1013.4 hPa Calm     96% 0 mm
05:09 10.3 °C 9.7 °C 1013.4 hPa Calm     96% 0 mm
05:14 10.3 °C 9.7 °C 1013.4 hPa Calm     96% 0 mm
05:20 10.3 °C 9.7 °C 1013.4 hPa Calm     96% 0 mm
05:29 10.3 °C 9.7 °C 1013.4 hPa Calm     96% 0 mm
05:34 10.2 °C 9.6 °C 1013.4 hPa Calm     96% 0 mm
05:39 10.2 °C 9.6 °C 1013.4 hPa Calm     96% 0 mm
05:49 10.2 °C 9.6 °C 1013.4 hPa Calm     96% 0 mm
05:54 10.3 °C 9.7 °C 1013.4 hPa Calm     96% 0 mm
05:59 10.3 °C 9.7 °C 1013.4 hPa Calm     96% 0 mm
06:04 10.4 °C 9.8 °C 1013.4 hPa Calm     96% 0 mm
06:09 10.4 °C 9.8 °C 1013.4 hPa Calm     96% 0 mm
06:14 10.6 °C 9.9 °C 1013.8 hPa Calm     96% 0 mm
06:19 10.8 °C 10.2 °C 1013.8 hPa Calm     96% 0 mm
06:24 10.9 °C 10.3 °C 1013.8 hPa Calm     96% 0 mm
06:29 11.2 °C 10.6 °C 1013.8 hPa Calm     96% 0 mm
06:34 11.4 °C 10.8 °C 1013.8 hPa Calm     96% 0 mm
06:39 11.5 °C 10.9 °C 1013.8 hPa Calm     96% 0 mm
06:44 11.7 °C 11.1 °C 1013.8 hPa Calm     96% 0 mm
06:49 11.8 °C 11.2 °C 1013.8 hPa Calm     96% 0 mm
06:54 11.9 °C 11.3 °C 1013.8 hPa Calm   1.6 km/h 96% 0 mm
06:59 12.1 °C 11.4 °C 1013.8 hPa Calm   1.6 km/h 96% 0 mm
07:04 12.1 °C 11.4 °C 1013.8 hPa Calm     96% 0 mm
07:09 12.2 °C 11.6 °C 1013.8 hPa Calm     96% 0 mm
07:14 12.2 °C 11.6 °C 1013.8 hPa Calm     96% 0 mm
07:19 12.2 °C 11.6 °C 1013.8 hPa Calm     96% 0 mm
07:24 12.2 °C 11.6 °C 1013.8 hPa Calm     96% 0 mm
07:29 12.4 °C 11.8 °C 1013.8 hPa Calm     96% 0 mm
07:39 12.6 °C 12 °C 1013.8 hPa Calm     96% 0 mm
07:45 12.7 °C 12.1 °C 1013.8 hPa Calm     96% 0 mm
07:54 13.3 °C 12.7 °C 1013.8 hPa Calm     96% 0 mm
07:59 13.8 °C 13.2 °C 1013.8 hPa Calm     96% 0 mm
08:04 14.3 °C 13.7 °C 1013.8 hPa Calm     96% 0 mm
08:09 14.8 °C 14 °C 1013.8 hPa Calm     95% 0 mm
08:14 15 °C 13.7 °C 1013.8 hPa Calm     92% 0 mm
08:19 15.2 °C 13.2 °C 1013.8 hPa Calm     88% 0 mm
08:24 15.2 °C 12.9 °C 1013.8 hPa Calm     86% 0 mm
08:29 15.6 °C 13.4 °C 1013.8 hPa Calm     87% 0 mm
08:39 16.4 °C 13.4 °C 1013.8 hPa Calm     82% 0 mm
08:44 16.7 °C 13.6 °C 1013.8 hPa Calm     82% 0 mm
08:49 16.9 °C 13.4 °C 1013.8 hPa Calm     80% 0 mm
08:54 16.8 °C 12.8 °C 1013.8 hPa Calm   1.6 km/h 77% 0 mm
08:59 16.9 °C 12.9 °C 1014.1 hPa Calm   1.6 km/h 77% 0 mm
09:04 17 °C 12.7 °C 1014.1 hPa Calm     76% 0 mm
09:09 17.1 °C 13.4 °C 1014.1 hPa Calm     79% 0 mm
09:14 17.3 °C 13.3 °C 1013.8 hPa Calm     77% 0 mm
09:19 17.6 °C 13.3 °C 1013.8 hPa Calm     76% 0 mm
09:24 17.6 °C 12.9 °C 1013.8 hPa Calm     74% 0 mm
09:29 17.7 °C 13.2 °C 1013.8 hPa Calm     75% 0 mm
09:34 18.1 °C 12.9 °C 1013.8 hPa Calm     72% 0 mm
09:39 18.3 °C 13.2 °C 1013.8 hPa Calm     72% 0 mm
09:44 18.6 °C 13 °C 1013.8 hPa Calm     70% 0 mm
09:49 18.8 °C 13.2 °C 1013.8 hPa Calm     70% 0 mm
09:54 18.9 °C 12.8 °C 1013.8 hPa Calm     68% 0 mm
09:59 18.6 °C 12.3 °C 1013.8 hPa Calm     67% 0 mm
10:04 18.3 °C 12.1 °C 1013.8 hPa Calm     67% 0 mm
10:09 18.3 °C 12.5 °C 1013.8 hPa Calm     69% 0 mm
10:14 18.2 °C 12.2 °C 1013.4 hPa Calm     68% 0 mm
10:19 18.3 °C 12.8 °C 1013.4 hPa Calm     70% 0 mm
10:24 18.7 °C 12.2 °C 1013.4 hPa WNW 1.6 km/h 6.4 km/h 66% 0 mm
10:29 18.6 °C 12.2 °C 1013.4 hPa Calm   9.7 km/h 66% 0 mm
10:34 18.8 °C 11.9 °C 1013.4 hPa NW 8 km/h 14.5 km/h 64% 0 mm
10:39 18.1 °C 11.4 °C 1013.4 hPa WNW 3.2 km/h 14.5 km/h 65% 0 mm
10:44 18.2 °C 11.3 °C 1013.4 hPa NW 9.7 km/h 17.7 km/h 64% 0 mm
10:49 18.3 °C 12.1 °C 1013.4 hPa West 1.6 km/h 17.7 km/h 67% 0 mm
10:54 18.6 °C 13.6 °C 1013.4 hPa Calm   11.3 km/h 73% 0 mm
10:59 18.8 °C 12.8 °C 1013.4 hPa WNW 1.6 km/h 6.4 km/h 68% 0 mm
11:04 18.4 °C 12.7 °C 1013.4 hPa Calm   12.9 km/h 69% 0 mm
11:09 18.1 °C 11.8 °C 1013.4 hPa Calm   12.9 km/h 67% 0 mm
11:14 18.4 °C 12.2 °C 1013.1 hPa Calm   1.6 km/h 67% 0 mm
11:19 19.1 °C 13 °C 1013.1 hPa NW 3.2 km/h 11.3 km/h 68% 0 mm
11:24 19.3 °C 12.1 °C 1013.1 hPa NW 1.6 km/h 14.5 km/h 63% 0 mm
11:29 18.8 °C 11.8 °C 1013.1 hPa WNW 8 km/h 14.5 km/h 64% 0 mm
11:34 19 °C 12.9 °C 1013.1 hPa NW 3.2 km/h 14.5 km/h 68% 0 mm
11:39 19.1 °C 11.8 °C 1013.1 hPa Calm   9.7 km/h 63% 0 mm
11:44 18.7 °C 10.5 °C 1013.1 hPa NNE 1.6 km/h 9.7 km/h 59% 0 mm
11:49 18.4 °C 10.7 °C 1013.1 hPa Calm   8 km/h 61% 0 mm
11:54 18.2 °C 11.6 °C 1013.1 hPa Calm     65% 0 mm
11:59 18.7 °C 11 °C 1013.1 hPa Calm   9.7 km/h 61% 0 mm
12:04 19.3 °C 12.3 °C 1013.1 hPa NW 4.8 km/h 11.3 km/h 64% 0 mm
12:09 19.2 °C 10.9 °C 1013.1 hPa WNW 4.8 km/h 14.5 km/h 59% 0 mm
12:14 18.9 °C 11.5 °C 1013.1 hPa WNW 1.6 km/h 14.5 km/h 62% 0 mm
12:19 19.3 °C 11.4 °C 1013.1 hPa Calm   11.3 km/h 60% 0 mm
12:24 19.9 °C 12.4 °C 1013.1 hPa Calm   6.4 km/h 62% 0 mm
12:29 20.2 °C 11.2 °C 1013.1 hPa Calm   8 km/h 56% 0 mm
12:34 20.1 °C 11.1 °C 1012.8 hPa Calm   8 km/h 56% 0 mm
12:39 19.7 °C 10.9 °C 1012.8 hPa Calm   1.6 km/h 57% 0 mm
12:44 19.2 °C 11.7 °C 1013.1 hPa Calm   1.6 km/h 62% 0 mm
12:49 18.7 °C 11.6 °C 1012.8 hPa Calm   1.6 km/h 63% 0 mm
12:54 19.1 °C 12.6 °C 1012.8 hPa Calm   4.8 km/h 66% 0 mm
12:59 19.9 °C 12.4 °C 1012.8 hPa Calm   6.4 km/h 62% 0 mm
13:04 20.6 °C 13.1 °C 1012.8 hPa Calm   6.4 km/h 62% 0 mm
13:09 20.8 °C 12.2 °C 1012.8 hPa Calm   9.7 km/h 58% 0 mm
13:14 21.1 °C 12.5 °C 1012.4 hPa Calm   9.7 km/h 58% 0 mm
13:19 21.2 °C 12.9 °C 1012.4 hPa NW 3.2 km/h 11.3 km/h 59% 0 mm
13:24 21 °C 11.9 °C 1012.4 hPa Calm   11.3 km/h 56% 0 mm
13:29 20.8 °C 11.4 °C 1012.4 hPa ENE 1.6 km/h 11.3 km/h 55% 0 mm
13:34 20.8 °C 11.4 °C 1012.4 hPa Calm   11.3 km/h 55% 0 mm
13:39 21.1 °C 13 °C 1012.4 hPa Calm   8 km/h 60% 0 mm
13:44 21.5 °C 13.4 °C 1012.4 hPa Calm   8 km/h 60% 0 mm
13:49 21.4 °C 11.5 °C 1012.4 hPa Calm   6.4 km/h 53% 0 mm
13:54 21.4 °C 12.6 °C 1012.4 hPa Calm   6.4 km/h 57% 0 mm
13:59 21.4 °C 11.5 °C 1012.1 hPa Calm   11.3 km/h 53% 0 mm
14:04 21.5 °C 10.9 °C 1012.1 hPa Calm   11.3 km/h 51% 0 mm
14:09 21.7 °C 10.8 °C 1012.1 hPa WNW 3.2 km/h 11.3 km/h 50% 0 mm
14:14 21.7 °C 13.1 °C 1012.1 hPa Calm   11.3 km/h 58% 0 mm
14:19 21.9 °C 13.3 °C 1012.1 hPa Calm   6.4 km/h 58% 0 mm
14:34 21.7 °C 11.7 °C 1012.1 hPa NE 1.6 km/h 9.7 km/h 53% 0 mm
14:44 21.6 °C 12.2 °C 1011.7 hPa Calm   9.7 km/h 55% 0 mm
14:49 21.8 °C 13.2 °C 1011.7 hPa Calm   6.4 km/h 58% 0 mm
14:54 22.1 °C 10.8 °C 1011.7 hPa Calm     49% 0 mm
14:59 22.3 °C 10.8 °C 1011.7 hPa Calm   1.6 km/h 48% 0 mm
15:04 22.3 °C 12.3 °C 1011.7 hPa WNW 4.8 km/h 12.9 km/h 53% 0 mm
15:09 22.3 °C 11.1 °C 1011.7 hPa Calm   12.9 km/h 49% 0 mm
15:14 22.3 °C 10.5 °C 1011.7 hPa NNW 1.6 km/h 8 km/h 47% 0 mm
15:19 22.2 °C 9.4 °C 1011.7 hPa NNE 1.6 km/h 14.5 km/h 44% 0 mm
15:24 22.4 °C 11.2 °C 1011.7 hPa Calm   14.5 km/h 49% 0 mm
15:29 22.6 °C 12.3 °C 1011.4 hPa Calm   1.6 km/h 52% 0 mm
15:39 21.8 °C 10.7 °C 1011.4 hPa Calm   14.5 km/h 49% 0 mm
15:44 21.8 °C 9.4 °C 1011.4 hPa Calm   12.9 km/h 45% 0 mm
15:49 22 °C 11.1 °C 1011.4 hPa Calm   12.9 km/h 50% 0 mm
15:54 22.1 °C 10.3 °C 1011.4 hPa Calm   6.4 km/h 47% 0 mm
15:59 21.9 °C 9.2 °C 1011.4 hPa Calm   3.2 km/h 44% 0 mm
16:04 22.2 °C 11 °C 1011.4 hPa Calm   3.2 km/h 49% 0 mm
16:09 22.4 °C 11.8 °C 1011.4 hPa Calm   1.6 km/h 51% 0 mm
16:14 22.7 °C 11.7 °C 1011.4 hPa NW 1.6 km/h 9.7 km/h 50% 0 mm
16:19 22.6 °C 11.1 °C 1011.1 hPa WNW 8 km/h 14.5 km/h 48% 0 mm
16:24 22.4 °C 11.2 °C 1011.1 hPa NW 3.2 km/h 14.5 km/h 49% 0 mm
16:29 22.2 °C 11.6 °C 1011.1 hPa West 3.2 km/h 16.1 km/h 51% 0 mm
16:34 22.4 °C 10.6 °C 1011.1 hPa Calm   16.1 km/h 47% 0 mm
16:39 22.2 °C 10.4 °C 1011.4 hPa Calm   6.4 km/h 47% 0 mm
16:44 22.2 °C 9.7 °C 1011.1 hPa Calm   6.4 km/h 45% 0 mm
16:49 22.3 °C 9.8 °C 1011.1 hPa Calm   1.6 km/h 45% 0 mm
16:54 22.3 °C 11.4 °C 1011.1 hPa Calm   8 km/h 50% 0 mm
16:59 22.4 °C 10.3 °C 1011.1 hPa Calm   8 km/h 46% 0 mm
17:09 22.5 °C 9.3 °C 1011.1 hPa Calm   4.8 km/h 43% 0 mm
17:14 22.5 °C 9.3 °C 1011.1 hPa Calm   4.8 km/h 43% 0 mm
17:19 22.6 °C 7.6 °C 1010.7 hPa Calm     38% 0 mm
17:24 22.4 °C 7.4 °C 1010.7 hPa NNE 1.6 km/h 8 km/h 38% 0 mm
17:29 22.5 °C 7.9 °C 1010.7 hPa Calm   8 km/h 39% 0 mm
17:34 22.7 °C 8 °C 1010.7 hPa Calm   3.2 km/h 39% 0 mm
17:39 22.8 °C 9.9 °C 1010.7 hPa Calm   1.6 km/h 44% 0 mm
17:44 22.8 °C 10.9 °C 1010.7 hPa Calm   1.6 km/h 47% 0 mm
17:49 22.7 °C 9.2 °C 1010.7 hPa Calm   1.6 km/h 42% 0 mm
17:54 22.8 °C 8.8 °C 1010.4 hPa Calm     41% 0 mm
17:59 22.8 °C 8.5 °C 1010.4 hPa Calm   1.6 km/h 40% 0 mm
18:04 22.7 °C 7.2 °C 1010.4 hPa Calm   1.6 km/h 37% 0 mm
18:09 22.7 °C 8 °C 1010.4 hPa Calm     39% 0 mm
18:14 22.7 °C 8 °C 1010.4 hPa North 1.6 km/h 6.4 km/h 39% 0 mm
18:19 22.6 °C 7.9 °C 1010.4 hPa Calm   6.4 km/h 39% 0 mm
18:24 22.5 °C 7.9 °C 1010.4 hPa Calm   4.8 km/h 39% 0 mm
18:29 22.5 °C 8.6 °C 1010.7 hPa Calm   4.8 km/h 41% 0 mm
18:34 22.7 °C 8.8 °C 1010.7 hPa Calm     41% 0 mm
18:39 22.6 °C 8.3 °C 1010.7 hPa Calm     40% 0 mm
18:44 22.3 °C 9.2 °C 1010.7 hPa Calm     43% 0 mm
18:49 22 °C 10.5 °C 1010.7 hPa Calm     48% 0 mm
18:54 21.8 °C 9.3 °C 1010.7 hPa Calm     45% 0 mm
18:59 21.7 °C 8.9 °C 1010.7 hPa Calm     44% 0 mm
19:04 21.2 °C 8.8 °C 1010.7 hPa Calm     45% 0 mm
19:09 20.8 °C 9.4 °C 1010.7 hPa Calm     48% 0 mm
19:14 20.3 °C 10.7 °C 1010.7 hPa Calm     54% 0 mm
19:19 19.8 °C 11.6 °C 1010.7 hPa Calm     59% 0 mm
19:24 19.1 °C 10.7 °C 1010.7 hPa Calm     58% 0 mm
19:29 18.7 °C 11.2 °C 1010.7 hPa Calm     62% 0 mm
19:34 18.3 °C 11.1 °C 1010.7 hPa Calm     63% 0 mm
19:39 17.8 °C 11.3 °C 1010.7 hPa Calm     66% 0 mm
19:44 17.4 °C 11 °C 1010.7 hPa Calm     66% 0 mm
19:49 17 °C 11.1 °C 1010.7 hPa Calm     68% 0 mm
19:54 16.6 °C 10.9 °C 1010.7 hPa Calm     69% 0 mm
19:59 16.2 °C 10.9 °C 1010.7 hPa Calm     71% 0 mm
20:04 15.8 °C 10.9 °C 1010.7 hPa Calm     73% 0 mm
20:09 15.3 °C 10.7 °C 1010.7 hPa Calm     74% 0 mm
20:14 15 °C 10.4 °C 1010.7 hPa Calm     74% 0 mm
20:19 14.7 °C 10.6 °C 1010.7 hPa Calm     76% 0 mm
20:24 14.4 °C 10.2 °C 1010.7 hPa Calm     76% 0 mm
20:29 14 °C 9.8 °C 1010.7 hPa Calm     76% 0 mm
20:34 13.6 °C 9.8 °C 1010.7 hPa Calm     78% 0 mm
20:39 13.2 °C 9.1 °C 1011.1 hPa Calm     76% 0 mm
20:44 12.8 °C 8.9 °C 1010.7 hPa Calm     77% 0 mm
20:49 12.5 °C 8.8 °C 1011.1 hPa Calm     78% 0 mm
20:54 12.3 °C 8.6 °C 1011.1 hPa Calm     78% 0 mm
20:59 12 °C 8.5 °C 1011.1 hPa Calm     79% 0 mm
21:04 11.8 °C 8.5 °C 1011.1 hPa Calm     80% 0 mm
21:09 11.7 °C 8.5 °C 1011.1 hPa Calm     81% 0 mm
21:14 11.5 °C 8.6 °C 1011.1 hPa Calm     82% 0 mm
21:19 11.4 °C 8.5 °C 1011.1 hPa Calm     82% 0 mm
21:24 11.5 °C 8.3 °C 1011.1 hPa Calm     81% 0 mm
21:29 11.6 °C 8.4 °C 1011.1 hPa Calm     81% 0 mm
21:34 11.7 °C 8.3 °C 1011.1 hPa Calm     80% 0 mm
21:39 11.6 °C 8.4 °C 1011.1 hPa Calm     81% 0 mm
21:44 11.5 °C 8 °C 1011.1 hPa Calm     79% 0 mm
21:49 11.6 °C 7.8 °C 1011.4 hPa Calm     78% 0 mm
21:54 11.5 °C 8 °C 1011.4 hPa Calm     79% 0 mm
21:59 11.3 °C 7.8 °C 1011.1 hPa Calm     79% 0 mm
22:04 11.3 °C 7.8 °C 1011.1 hPa Calm     79% 0 mm
22:09 11.3 °C 7.6 °C 1011.1 hPa Calm     78% 0 mm
22:14 11.3 °C 7.8 °C 1011.1 hPa Calm     79% 0 mm
22:19 11.2 °C 8.1 °C 1011.1 hPa Calm     81% 0 mm
22:24 11 °C 7.9 °C 1011.1 hPa Calm     81% 0 mm
22:29 10.9 °C 7.6 °C 1011.1 hPa Calm   3.2 km/h 80% 0 mm
22:34 11.2 °C 7.7 °C 1011.1 hPa Calm   3.2 km/h 79% 0 mm
22:39 11.4 °C 7.7 °C 1011.1 hPa Calm   3.2 km/h 78% 0 mm
22:44 11.6 °C 7.9 °C 1011.1 hPa Calm   3.2 km/h 78% 0 mm
22:49 11.7 °C 7.9 °C 1011.1 hPa Calm   1.6 km/h 78% 0 mm
22:54 11.6 °C 8.1 °C 1011.1 hPa Calm     79% 0 mm
22:59 11.5 °C 8 °C 1011.1 hPa Calm     79% 0 mm
23:04 11.4 °C 7.9 °C 1011.1 hPa Calm   1.6 km/h 79% 0 mm
23:09 11.3 °C 7.9 °C 1011.1 hPa Calm   1.6 km/h 80% 0 mm
23:14 11.2 °C 7.8 °C 1011.1 hPa Calm     80% 0 mm
23:19 11 °C 7.7 °C 1011.1 hPa Calm   4.8 km/h 80% 0 mm
23:24 11 °C 7.7 °C 1011.1 hPa Calm   6.4 km/h 80% 0 mm
23:29 10.9 °C 7.6 °C 1011.1 hPa Calm   6.4 km/h 80% 0 mm
23:34 10.9 °C 7.4 °C 1010.7 hPa Calm   3.2 km/h 79% 0 mm
23:39 11.1 °C 7.6 °C 1010.7 hPa SW 1.6 km/h 4.8 km/h 79% 0 mm
23:44 11.2 °C 7.7 °C 1010.7 hPa Calm   4.8 km/h 79% 0 mm
23:49 11.2 °C 7.6 °C 1010.7 hPa Calm   4.8 km/h 78% 0 mm
23:54 11.3 °C 7.6 °C 1010.7 hPa Calm   4.8 km/h 78% 0 mm
23:59 11.3 °C 7.6 °C 1010.7 hPa Calm   6.4 km/h 78% 0 mm
Westford Weather
Compliments of Weather Underground

 
 
Current Radar Loop:

Copyright © WestfordWeather.net 2007-2014. All rights reserved.